sensor_id;sensor_type;location;lat;lon;timestamp;temperature;humidity
24802;DHT22;12898;50.520;12.152;2023-07-20T00:01:13;14.30;99.90
24802;DHT22;12898;50.520;12.152;2023-07-20T00:03:39;14.30;99.90
24802;DHT22;12898;50.520;12.152;2023-07-20T00:06:04;14.30;99.90
24802;DHT22;12898;50.520;12.152;2023-07-20T00:08:30;14.30;99.90
24802;DHT22;12898;50.520;12.152;2023-07-20T00:10:56;14.30;99.90
24802;DHT22;12898;50.520;12.152;2023-07-20T00:13:22;14.40;99.90
24802;DHT22;12898;50.520;12.152;2023-07-20T00:15:47;14.40;99.90
24802;DHT22;12898;50.520;12.152;2023-07-20T00:18:13;14.40;99.90
24802;DHT22;12898;50.520;12.152;2023-07-20T00:20:39;14.30;99.90
24802;DHT22;12898;50.520;12.152;2023-07-20T00:23:05;14.30;99.90
24802;DHT22;12898;50.520;12.152;2023-07-20T00:25:31;14.20;99.90
24802;DHT22;12898;50.520;12.152;2023-07-20T00:27:57;14.20;99.90
24802;DHT22;12898;50.520;12.152;2023-07-20T00:30:23;14.10;99.90
24802;DHT22;12898;50.520;12.152;2023-07-20T00:32:49;14.10;99.90
24802;DHT22;12898;50.520;12.152;2023-07-20T00:35:14;14.10;99.90
24802;DHT22;12898;50.520;12.152;2023-07-20T00:37:40;14.00;99.90
24802;DHT22;12898;50.520;12.152;2023-07-20T00:40:06;14.00;99.90
24802;DHT22;12898;50.520;12.152;2023-07-20T00:42:35;13.90;99.90
24802;DHT22;12898;50.520;12.152;2023-07-20T00:45:01;13.90;99.90
24802;DHT22;12898;50.520;12.152;2023-07-20T00:47:27;13.80;99.90
24802;DHT22;12898;50.520;12.152;2023-07-20T00:49:53;13.70;99.90
24802;DHT22;12898;50.520;12.152;2023-07-20T00:52:21;13.70;99.90
24802;DHT22;12898;50.520;12.152;2023-07-20T00:54:49;13.60;99.90
24802;DHT22;12898;50.520;12.152;2023-07-20T00:57:15;13.50;99.90
24802;DHT22;12898;50.520;12.152;2023-07-20T00:59:41;13.40;99.90
24802;DHT22;12898;50.520;12.152;2023-07-20T01:02:07;13.40;99.90
24802;DHT22;12898;50.520;12.152;2023-07-20T01:04:33;13.30;99.90
24802;DHT22;12898;50.520;12.152;2023-07-20T01:10:06;13.20;99.90
24802;DHT22;12898;50.520;12.152;2023-07-20T01:12:47;13.20;99.90
24802;DHT22;12898;50.520;12.152;2023-07-20T01:15:13;13.10;99.90
24802;DHT22;12898;50.520;12.152;2023-07-20T01:17:39;13.10;99.90
24802;DHT22;12898;50.520;12.152;2023-07-20T01:20:07;13.10;99.90
24802;DHT22;12898;50.520;12.152;2023-07-20T01:26:08;13.10;99.90
24802;DHT22;12898;50.520;12.152;2023-07-20T01:31:30;13.10;99.90
24802;DHT22;12898;50.520;12.152;2023-07-20T01:34:00;13.00;99.90
24802;DHT22;12898;50.520;12.152;2023-07-20T01:36:29;13.00;99.90
24802;DHT22;12898;50.520;12.152;2023-07-20T01:38:56;13.00;99.90
24802;DHT22;12898;50.520;12.152;2023-07-20T01:41:23;12.90;99.90
24802;DHT22;12898;50.520;12.152;2023-07-20T01:43:48;12.80;99.90
24802;DHT22;12898;50.520;12.152;2023-07-20T01:46:14;12.70;99.90
24802;DHT22;12898;50.520;12.152;2023-07-20T01:48:40;12.60;99.90
24802;DHT22;12898;50.520;12.152;2023-07-20T01:51:05;12.60;99.90
24802;DHT22;12898;50.520;12.152;2023-07-20T01:53:31;12.60;99.90
24802;DHT22;12898;50.520;12.152;2023-07-20T01:55:57;12.50;99.90
24802;DHT22;12898;50.520;12.152;2023-07-20T01:58:22;12.50;99.90
24802;DHT22;12898;50.520;12.152;2023-07-20T02:00:48;12.50;99.90
24802;DHT22;12898;50.520;12.152;2023-07-20T02:03:14;12.40;99.90
24802;DHT22;12898;50.520;12.152;2023-07-20T02:05:42;12.30;99.90
24802;DHT22;12898;50.520;12.152;2023-07-20T02:08:08;12.30;99.90
24802;DHT22;12898;50.520;12.152;2023-07-20T02:10:34;12.20;99.90
24802;DHT22;12898;50.520;12.152;2023-07-20T02:12:59;12.20;99.90
24802;DHT22;12898;50.520;12.152;2023-07-20T02:15:25;12.10;99.90
24802;DHT22;12898;50.520;12.152;2023-07-20T02:17:51;12.10;99.90
24802;DHT22;12898;50.520;12.152;2023-07-20T02:20:16;12.00;99.90
24802;DHT22;12898;50.520;12.152;2023-07-20T02:22:43;12.00;99.90
24802;DHT22;12898;50.520;12.152;2023-07-20T02:25:08;11.90;99.90
24802;DHT22;12898;50.520;12.152;2023-07-20T02:27:35;11.90;99.90
24802;DHT22;12898;50.520;12.152;2023-07-20T02:30:01;11.90;99.90
24802;DHT22;12898;50.520;12.152;2023-07-20T02:32:28;11.80;99.90
24802;DHT22;12898;50.520;12.152;2023-07-20T02:34:53;11.80;99.90
24802;DHT22;12898;50.520;12.152;2023-07-20T02:37:19;11.80;99.90
24802;DHT22;12898;50.520;12.152;2023-07-20T02:39:45;11.80;99.90
24802;DHT22;12898;50.520;12.152;2023-07-20T02:42:10;11.80;99.90
24802;DHT22;12898;50.520;12.152;2023-07-20T02:44:36;11.90;99.90
24802;DHT22;12898;50.520;12.152;2023-07-20T02:47:03;11.90;99.90
24802;DHT22;12898;50.520;12.152;2023-07-20T02:49:28;12.00;99.90
24802;DHT22;12898;50.520;12.152;2023-07-20T02:51:54;12.00;99.90
24802;DHT22;12898;50.520;12.152;2023-07-20T02:54:20;12.10;99.90
24802;DHT22;12898;50.520;12.152;2023-07-20T02:56:46;12.20;99.90
24802;DHT22;12898;50.520;12.152;2023-07-20T02:59:12;12.20;99.90
24802;DHT22;12898;50.520;12.152;2023-07-20T03:01:37;12.30;99.90
24802;DHT22;12898;50.520;12.152;2023-07-20T03:04:03;12.30;99.90
24802;DHT22;12898;50.520;12.152;2023-07-20T03:06:29;12.40;99.90
24802;DHT22;12898;50.520;12.152;2023-07-20T03:08:55;12.40;99.90
24802;DHT22;12898;50.520;12.152;2023-07-20T03:11:21;12.40;99.90
24802;DHT22;12898;50.520;12.152;2023-07-20T03:13:47;12.40;99.90
24802;DHT22;12898;50.520;12.152;2023-07-20T03:16:14;12.50;99.90
24802;DHT22;12898;50.520;12.152;2023-07-20T03:18:43;12.50;99.90
24802;DHT22;12898;50.520;12.152;2023-07-20T03:21:10;12.50;99.90
24802;DHT22;12898;50.520;12.152;2023-07-20T03:23:41;12.50;99.90
24802;DHT22;12898;50.520;12.152;2023-07-20T03:26:08;12.50;99.90
24802;DHT22;12898;50.520;12.152;2023-07-20T03:28:37;12.50;99.90
24802;DHT22;12898;50.520;12.152;2023-07-20T03:31:04;12.50;99.90
24802;DHT22;12898;50.520;12.152;2023-07-20T03:33:31;12.50;99.90
24802;DHT22;12898;50.520;12.152;2023-07-20T03:35:57;12.50;99.90
24802;DHT22;12898;50.520;12.152;2023-07-20T03:38:24;12.50;99.90
24802;DHT22;12898;50.520;12.152;2023-07-20T03:40:59;12.50;99.90
24802;DHT22;12898;50.520;12.152;2023-07-20T03:43:26;12.50;99.90
24802;DHT22;12898;50.520;12.152;2023-07-20T03:45:53;12.50;99.90
24802;DHT22;12898;50.520;12.152;2023-07-20T03:48:21;12.50;99.90
24802;DHT22;12898;50.520;12.152;2023-07-20T03:50:50;12.50;99.90
24802;DHT22;12898;50.520;12.152;2023-07-20T03:53:17;12.60;99.90
24802;DHT22;12898;50.520;12.152;2023-07-20T03:55:50;12.50;99.90
24802;DHT22;12898;50.520;12.152;2023-07-20T03:58:17;12.60;99.90
24802;DHT22;12898;50.520;12.152;2023-07-20T04:00:45;12.60;99.90
24802;DHT22;12898;50.520;12.152;2023-07-20T04:03:12;12.60;99.90
24802;DHT22;12898;50.520;12.152;2023-07-20T04:05:38;12.60;99.90
24802;DHT22;12898;50.520;12.152;2023-07-20T04:08:04;12.70;99.90
24802;DHT22;12898;50.520;12.152;2023-07-20T04:10:30;12.70;99.90
24802;DHT22;12898;50.520;12.152;2023-07-20T04:12:55;12.80;99.90
24802;DHT22;12898;50.520;12.152;2023-07-20T04:15:21;12.80;99.90
24802;DHT22;12898;50.520;12.152;2023-07-20T04:17:47;12.90;99.90
24802;DHT22;12898;50.520;12.152;2023-07-20T04:20:12;13.00;99.90
24802;DHT22;12898;50.520;12.152;2023-07-20T04:22:38;13.10;99.90
24802;DHT22;12898;50.520;12.152;2023-07-20T04:25:04;13.10;99.90
24802;DHT22;12898;50.520;12.152;2023-07-20T04:27:30;13.20;99.90
24802;DHT22;12898;50.520;12.152;2023-07-20T04:29:57;13.30;99.90
24802;DHT22;12898;50.520;12.152;2023-07-20T04:32:25;13.40;99.90
24802;DHT22;12898;50.520;12.152;2023-07-20T04:34:50;13.50;99.90
24802;DHT22;12898;50.520;12.152;2023-07-20T04:37:16;13.70;99.90
24802;DHT22;12898;50.520;12.152;2023-07-20T04:39:42;13.70;99.90
24802;DHT22;12898;50.520;12.152;2023-07-20T04:42:07;13.80;99.90
24802;DHT22;12898;50.520;12.152;2023-07-20T04:44:33;13.90;99.90
24802;DHT22;12898;50.520;12.152;2023-07-20T04:46:59;14.00;99.90
24802;DHT22;12898;50.520;12.152;2023-07-20T04:49:25;14.00;99.90
24802;DHT22;12898;50.520;12.152;2023-07-20T04:51:51;14.10;99.90
24802;DHT22;12898;50.520;12.152;2023-07-20T04:54:17;14.20;99.90
24802;DHT22;12898;50.520;12.152;2023-07-20T04:56:43;14.30;99.90
24802;DHT22;12898;50.520;12.152;2023-07-20T04:59:09;14.30;99.90
24802;DHT22;12898;50.520;12.152;2023-07-20T05:01:35;14.40;99.90
24802;DHT22;12898;50.520;12.152;2023-07-20T05:04:01;14.50;99.90
24802;DHT22;12898;50.520;12.152;2023-07-20T05:06:27;14.60;99.90
24802;DHT22;12898;50.520;12.152;2023-07-20T05:08:53;14.60;99.90
24802;DHT22;12898;50.520;12.152;2023-07-20T05:11:19;14.70;99.90
24802;DHT22;12898;50.520;12.152;2023-07-20T05:13:45;14.80;99.90
24802;DHT22;12898;50.520;12.152;2023-07-20T05:16:11;14.90;99.90
24802;DHT22;12898;50.520;12.152;2023-07-20T05:18:36;15.00;99.90
24802;DHT22;12898;50.520;12.152;2023-07-20T05:21:02;15.10;99.90
24802;DHT22;12898;50.520;12.152;2023-07-20T05:23:28;15.20;99.90
24802;DHT22;12898;50.520;12.152;2023-07-20T05:25:54;15.40;99.90
24802;DHT22;12898;50.520;12.152;2023-07-20T05:28:22;15.50;99.90
24802;DHT22;12898;50.520;12.152;2023-07-20T05:30:48;15.60;99.90
24802;DHT22;12898;50.520;12.152;2023-07-20T05:33:17;15.80;99.90
24802;DHT22;12898;50.520;12.152;2023-07-20T05:35:43;15.90;99.90
24802;DHT22;12898;50.520;12.152;2023-07-20T05:38:09;15.90;99.90
24802;DHT22;12898;50.520;12.152;2023-07-20T05:40:38;16.00;99.90
24802;DHT22;12898;50.520;12.152;2023-07-20T05:43:05;16.00;99.90
24802;DHT22;12898;50.520;12.152;2023-07-20T05:45:30;16.00;99.90
24802;DHT22;12898;50.520;12.152;2023-07-20T05:47:56;16.00;99.90
24802;DHT22;12898;50.520;12.152;2023-07-20T05:50:22;16.10;99.90
24802;DHT22;12898;50.520;12.152;2023-07-20T05:52:47;16.20;99.90
24802;DHT22;12898;50.520;12.152;2023-07-20T05:55:13;16.20;99.90
24802;DHT22;12898;50.520;12.152;2023-07-20T05:57:39;16.30;99.90
24802;DHT22;12898;50.520;12.152;2023-07-20T06:00:09;16.30;99.90
24802;DHT22;12898;50.520;12.152;2023-07-20T06:02:35;16.40;99.90
24802;DHT22;12898;50.520;12.152;2023-07-20T06:05:01;16.50;99.90
24802;DHT22;12898;50.520;12.152;2023-07-20T06:07:26;16.60;99.90
24802;DHT22;12898;50.520;12.152;2023-07-20T06:09:52;16.70;99.90
24802;DHT22;12898;50.520;12.152;2023-07-20T06:12:18;16.80;99.90
24802;DHT22;12898;50.520;12.152;2023-07-20T06:14:44;16.80;99.90
24802;DHT22;12898;50.520;12.152;2023-07-20T06:17:10;16.90;99.90
24802;DHT22;12898;50.520;12.152;2023-07-20T06:19:35;17.00;99.90
24802;DHT22;12898;50.520;12.152;2023-07-20T06:22:01;17.00;99.90
24802;DHT22;12898;50.520;12.152;2023-07-20T06:24:27;17.10;99.90
24802;DHT22;12898;50.520;12.152;2023-07-20T06:26:53;17.20;99.90
24802;DHT22;12898;50.520;12.152;2023-07-20T06:29:18;17.20;99.90
24802;DHT22;12898;50.520;12.152;2023-07-20T06:31:44;17.20;99.90
24802;DHT22;12898;50.520;12.152;2023-07-20T06:34:10;17.20;99.90
24802;DHT22;12898;50.520;12.152;2023-07-20T06:36:35;17.30;99.90
24802;DHT22;12898;50.520;12.152;2023-07-20T06:39:01;17.40;99.90
24802;DHT22;12898;50.520;12.152;2023-07-20T06:41:28;17.60;99.90
24802;DHT22;12898;50.520;12.152;2023-07-20T06:43:53;17.60;99.90
24802;DHT22;12898;50.520;12.152;2023-07-20T06:46:24;17.60;99.90
24802;DHT22;12898;50.520;12.152;2023-07-20T06:48:51;17.60;99.90
24802;DHT22;12898;50.520;12.152;2023-07-20T06:51:16;17.60;99.90
24802;DHT22;12898;50.520;12.152;2023-07-20T06:53:43;17.70;99.90
24802;DHT22;12898;50.520;12.152;2023-07-20T06:56:09;17.70;99.90
24802;DHT22;12898;50.520;12.152;2023-07-20T06:58:34;17.80;99.90
24802;DHT22;12898;50.520;12.152;2023-07-20T07:01:08;17.90;99.90
24802;DHT22;12898;50.520;12.152;2023-07-20T07:03:33;18.10;99.90
24802;DHT22;12898;50.520;12.152;2023-07-20T07:06:00;18.30;99.90
24802;DHT22;12898;50.520;12.152;2023-07-20T07:08:26;18.30;99.90
24802;DHT22;12898;50.520;12.152;2023-07-20T07:10:52;18.30;99.90
24802;DHT22;12898;50.520;12.152;2023-07-20T07:13:19;18.40;99.90
24802;DHT22;12898;50.520;12.152;2023-07-20T07:15:44;18.50;99.90
24802;DHT22;12898;50.520;12.152;2023-07-20T07:18:10;18.50;99.90
24802;DHT22;12898;50.520;12.152;2023-07-20T07:20:36;18.40;99.90
24802;DHT22;12898;50.520;12.152;2023-07-20T07:23:02;18.30;99.90
24802;DHT22;12898;50.520;12.152;2023-07-20T07:25:27;18.40;99.90
24802;DHT22;12898;50.520;12.152;2023-07-20T07:27:54;18.60;99.90
24802;DHT22;12898;50.520;12.152;2023-07-20T07:30:20;18.80;99.90
24802;DHT22;12898;50.520;12.152;2023-07-20T07:32:47;19.00;99.90
24802;DHT22;12898;50.520;12.152;2023-07-20T07:35:13;19.10;99.90
24802;DHT22;12898;50.520;12.152;2023-07-20T07:37:39;19.20;99.90
24802;DHT22;12898;50.520;12.152;2023-07-20T07:40:05;19.40;99.90
24802;DHT22;12898;50.520;12.152;2023-07-20T07:42:32;19.40;99.90
24802;DHT22;12898;50.520;12.152;2023-07-20T07:44:57;19.50;99.90
24802;DHT22;12898;50.520;12.152;2023-07-20T07:47:23;19.50;99.90
24802;DHT22;12898;50.520;12.152;2023-07-20T07:49:49;19.50;99.90
24802;DHT22;12898;50.520;12.152;2023-07-20T07:52:15;19.50;99.90
24802;DHT22;12898;50.520;12.152;2023-07-20T07:54:41;19.40;99.90
24802;DHT22;12898;50.520;12.152;2023-07-20T07:57:06;19.70;99.90
24802;DHT22;12898;50.520;12.152;2023-07-20T07:59:32;20.20;99.90
24802;DHT22;12898;50.520;12.152;2023-07-20T08:02:03;20.60;99.90
24802;DHT22;12898;50.520;12.152;2023-07-20T08:04:29;20.80;99.90
24802;DHT22;12898;50.520;12.152;2023-07-20T08:06:55;20.60;99.90
24802;DHT22;12898;50.520;12.152;2023-07-20T08:09:21;20.30;99.90
24802;DHT22;12898;50.520;12.152;2023-07-20T08:11:47;20.30;99.90
24802;DHT22;12898;50.520;12.152;2023-07-20T08:14:13;20.40;99.90
24802;DHT22;12898;50.520;12.152;2023-07-20T08:16:39;20.50;99.90
24802;DHT22;12898;50.520;12.152;2023-07-20T08:19:04;20.50;99.90
24802;DHT22;12898;50.520;12.152;2023-07-20T08:21:30;20.90;99.90
24802;DHT22;12898;50.520;12.152;2023-07-20T08:23:56;21.50;99.90
24802;DHT22;12898;50.520;12.152;2023-07-20T08:26:23;22.10;99.90
24802;DHT22;12898;50.520;12.152;2023-07-20T08:28:49;22.70;99.90
24802;DHT22;12898;50.520;12.152;2023-07-20T08:31:15;23.20;98.50
24802;DHT22;12898;50.520;12.152;2023-07-20T08:33:40;23.00;80.10
24802;DHT22;12898;50.520;12.152;2023-07-20T08:36:06;22.50;90.40
24802;DHT22;12898;50.520;12.152;2023-07-20T08:38:33;22.50;91.70
24802;DHT22;12898;50.520;12.152;2023-07-20T08:40:58;22.90;92.40
24802;DHT22;12898;50.520;12.152;2023-07-20T08:43:25;23.30;86.40
24802;DHT22;12898;50.520;12.152;2023-07-20T08:45:54;23.50;85.40
24802;DHT22;12898;50.520;12.152;2023-07-20T08:48:24;23.30;82.80
24802;DHT22;12898;50.520;12.152;2023-07-20T08:50:53;22.90;79.10
24802;DHT22;12898;50.520;12.152;2023-07-20T08:53:20;22.70;81.00
24802;DHT22;12898;50.520;12.152;2023-07-20T08:55:48;22.70;82.00
24802;DHT22;12898;50.520;12.152;2023-07-20T08:58:16;22.50;76.60
24802;DHT22;12898;50.520;12.152;2023-07-20T09:00:42;22.30;79.30
24802;DHT22;12898;50.520;12.152;2023-07-20T09:03:08;22.20;81.30
24802;DHT22;12898;50.520;12.152;2023-07-20T09:05:36;22.00;86.70
24802;DHT22;12898;50.520;12.152;2023-07-20T09:08:02;21.90;82.20
24802;DHT22;12898;50.520;12.152;2023-07-20T09:10:30;21.70;88.90
24802;DHT22;12898;50.520;12.152;2023-07-20T09:12:56;21.50;86.10
24802;DHT22;12898;50.520;12.152;2023-07-20T09:15:22;21.20;89.60
24802;DHT22;12898;50.520;12.152;2023-07-20T09:17:51;21.10;91.90
24802;DHT22;12898;50.520;12.152;2023-07-20T09:20:20;21.00;92.90
24802;DHT22;12898;50.520;12.152;2023-07-20T09:22:46;20.90;94.90
24802;DHT22;12898;50.520;12.152;2023-07-20T09:25:13;20.90;93.70
24802;DHT22;12898;50.520;12.152;2023-07-20T09:27:42;20.90;93.70
24802;DHT22;12898;50.520;12.152;2023-07-20T09:30:10;20.90;95.60
24802;DHT22;12898;50.520;12.152;2023-07-20T09:32:46;21.00;95.40
24802;DHT22;12898;50.520;12.152;2023-07-20T09:35:22;21.00;96.50
24802;DHT22;12898;50.520;12.152;2023-07-20T09:37:58;21.20;95.50
24802;DHT22;12898;50.520;12.152;2023-07-20T09:40:28;21.20;95.20
24802;DHT22;12898;50.520;12.152;2023-07-20T09:42:54;21.20;94.60
24802;DHT22;12898;50.520;12.152;2023-07-20T09:46:02;21.30;96.00
24802;DHT22;12898;50.520;12.152;2023-07-20T09:48:25;21.40;93.70
24802;DHT22;12898;50.520;12.152;2023-07-20T09:50:51;21.50;93.70
24802;DHT22;12898;50.520;12.152;2023-07-20T09:53:19;21.80;93.00
24802;DHT22;12898;50.520;12.152;2023-07-20T09:55:46;22.50;94.30
24802;DHT22;12898;50.520;12.152;2023-07-20T09:58:16;23.00;85.20
24802;DHT22;12898;50.520;12.152;2023-07-20T10:00:42;23.70;80.60
24802;DHT22;12898;50.520;12.152;2023-07-20T10:03:11;23.90;75.40
24802;DHT22;12898;50.520;12.152;2023-07-20T10:05:46;23.90;77.10
24802;DHT22;12898;50.520;12.152;2023-07-20T10:08:16;24.10;73.00
24802;DHT22;12898;50.520;12.152;2023-07-20T10:10:43;24.80;68.20
24802;DHT22;12898;50.520;12.152;2023-07-20T10:13:17;24.90;62.30
24802;DHT22;12898;50.520;12.152;2023-07-20T10:15:47;24.60;61.60
24802;DHT22;12898;50.520;12.152;2023-07-20T10:19:07;24.20;64.70
24802;DHT22;12898;50.520;12.152;2023-07-20T10:21:40;23.40;66.90
24802;DHT22;12898;50.520;12.152;2023-07-20T10:24:08;22.90;69.00
24802;DHT22;12898;50.520;12.152;2023-07-20T10:26:34;22.60;81.10
24802;DHT22;12898;50.520;12.152;2023-07-20T10:29:01;22.30;83.30
24802;DHT22;12898;50.520;12.152;2023-07-20T10:31:28;22.10;87.20
24802;DHT22;12898;50.520;12.152;2023-07-20T10:33:55;21.90;89.20
24802;DHT22;12898;50.520;12.152;2023-07-20T10:36:27;21.80;93.90
24802;DHT22;12898;50.520;12.152;2023-07-20T10:38:56;21.60;90.90
24802;DHT22;12898;50.520;12.152;2023-07-20T10:41:37;21.40;90.50
24802;DHT22;12898;50.520;12.152;2023-07-20T10:44:08;21.20;93.60
24802;DHT22;12898;50.520;12.152;2023-07-20T10:46:43;21.00;99.90
24802;DHT22;12898;50.520;12.152;2023-07-20T10:49:10;20.90;99.40
24802;DHT22;12898;50.520;12.152;2023-07-20T10:56:57;21.30;99.90
24802;DHT22;12898;50.520;12.152;2023-07-20T11:01:49;22.20;99.90
24802;DHT22;12898;50.520;12.152;2023-07-20T11:04:15;21.90;97.50
24802;DHT22;12898;50.520;12.152;2023-07-20T11:06:45;20.90;99.90
24802;DHT22;12898;50.520;12.152;2023-07-20T11:09:12;19.70;99.90
24802;DHT22;12898;50.520;12.152;2023-07-20T11:11:47;18.90;99.90
24802;DHT22;12898;50.520;12.152;2023-07-20T11:14:23;18.30;99.90
24802;DHT22;12898;50.520;12.152;2023-07-20T11:16:50;18.00;99.90
24802;DHT22;12898;50.520;12.152;2023-07-20T11:19:26;17.90;99.90
24802;DHT22;12898;50.520;12.152;2023-07-20T11:22:00;18.00;99.90
24802;DHT22;12898;50.520;12.152;2023-07-20T11:24:32;18.20;99.90
24802;DHT22;12898;50.520;12.152;2023-07-20T11:26:59;18.50;99.90
24802;DHT22;12898;50.520;12.152;2023-07-20T11:29:25;18.90;99.90
24802;DHT22;12898;50.520;12.152;2023-07-20T11:31:52;19.20;99.90
24802;DHT22;12898;50.520;12.152;2023-07-20T11:34:19;19.50;99.90
24802;DHT22;12898;50.520;12.152;2023-07-20T11:36:48;19.70;99.90
24802;DHT22;12898;50.520;12.152;2023-07-20T11:39:16;19.90;99.90
24802;DHT22;12898;50.520;12.152;2023-07-20T11:41:51;20.50;99.90
24802;DHT22;12898;50.520;12.152;2023-07-20T11:44:18;21.30;99.90
24802;DHT22;12898;50.520;12.152;2023-07-20T11:46:44;22.10;99.90
24802;DHT22;12898;50.520;12.152;2023-07-20T11:49:11;22.30;99.90
24802;DHT22;12898;50.520;12.152;2023-07-20T11:51:38;22.70;99.90
24802;DHT22;12898;50.520;12.152;2023-07-20T11:54:06;22.90;99.90
24802;DHT22;12898;50.520;12.152;2023-07-20T11:56:33;23.60;99.90
24802;DHT22;12898;50.520;12.152;2023-07-20T11:58:59;24.10;99.90
24802;DHT22;12898;50.520;12.152;2023-07-20T12:01:28;24.50;99.90
24802;DHT22;12898;50.520;12.152;2023-07-20T12:04:02;24.20;96.90
24802;DHT22;12898;50.520;12.152;2023-07-20T12:06:28;23.40;92.30
24802;DHT22;12898;50.520;12.152;2023-07-20T12:08:55;22.90;98.40
24802;DHT22;12898;50.520;12.152;2023-07-20T12:11:32;22.40;99.90
24802;DHT22;12898;50.520;12.152;2023-07-20T12:14:03;22.20;99.90
24802;DHT22;12898;50.520;12.152;2023-07-20T12:16:30;22.10;99.90
24802;DHT22;12898;50.520;12.152;2023-07-20T12:19:00;22.00;99.90
24802;DHT22;12898;50.520;12.152;2023-07-20T12:21:38;21.90;99.90
24802;DHT22;12898;50.520;12.152;2023-07-20T12:24:06;21.80;99.90
24802;DHT22;12898;50.520;12.152;2023-07-20T12:26:33;21.80;99.90
24802;DHT22;12898;50.520;12.152;2023-07-20T12:28:59;21.70;99.90
24802;DHT22;12898;50.520;12.152;2023-07-20T12:31:26;21.50;99.90
24802;DHT22;12898;50.520;12.152;2023-07-20T12:33:53;21.20;99.90
24802;DHT22;12898;50.520;12.152;2023-07-20T12:36:20;20.80;99.90
24802;DHT22;12898;50.520;12.152;2023-07-20T12:38:46;20.50;99.90
24802;DHT22;12898;50.520;12.152;2023-07-20T12:41:13;20.40;99.90
24802;DHT22;12898;50.520;12.152;2023-07-20T12:43:42;20.50;99.90
24802;DHT22;12898;50.520;12.152;2023-07-20T12:46:09;20.50;99.90
24802;DHT22;12898;50.520;12.152;2023-07-20T12:48:36;20.50;99.90
24802;DHT22;12898;50.520;12.152;2023-07-20T12:51:07;20.50;99.90
24802;DHT22;12898;50.520;12.152;2023-07-20T12:53:33;20.30;99.90
24802;DHT22;12898;50.520;12.152;2023-07-20T12:55:59;20.30;99.90
24802;DHT22;12898;50.520;12.152;2023-07-20T12:58:25;20.50;99.90
24802;DHT22;12898;50.520;12.152;2023-07-20T13:00:51;20.90;99.90
24802;DHT22;12898;50.520;12.152;2023-07-20T13:03:17;21.60;99.90
24802;DHT22;12898;50.520;12.152;2023-07-20T13:05:45;22.40;99.90
24802;DHT22;12898;50.520;12.152;2023-07-20T13:08:11;22.80;99.90
24802;DHT22;12898;50.520;12.152;2023-07-20T13:10:37;22.90;99.90
24802;DHT22;12898;50.520;12.152;2023-07-20T13:13:04;22.60;99.90
24802;DHT22;12898;50.520;12.152;2023-07-20T13:15:41;22.10;99.90
24802;DHT22;12898;50.520;12.152;2023-07-20T13:18:08;21.40;99.90
24802;DHT22;12898;50.520;12.152;2023-07-20T13:20:34;20.90;99.90
24802;DHT22;12898;50.520;12.152;2023-07-20T13:22:59;20.30;99.90
24802;DHT22;12898;50.520;12.152;2023-07-20T13:25:25;19.90;99.90
24802;DHT22;12898;50.520;12.152;2023-07-20T13:27:51;19.50;99.90
24802;DHT22;12898;50.520;12.152;2023-07-20T13:30:17;19.40;99.90
24802;DHT22;12898;50.520;12.152;2023-07-20T13:32:44;19.30;99.90
24802;DHT22;12898;50.520;12.152;2023-07-20T13:35:10;19.40;99.90
24802;DHT22;12898;50.520;12.152;2023-07-20T13:37:36;19.50;99.90
24802;DHT22;12898;50.520;12.152;2023-07-20T13:40:02;19.80;99.90
24802;DHT22;12898;50.520;12.152;2023-07-20T13:42:30;20.60;99.90
24802;DHT22;12898;50.520;12.152;2023-07-20T13:44:56;21.60;99.90
24802;DHT22;12898;50.520;12.152;2023-07-20T13:47:22;22.60;99.90
24802;DHT22;12898;50.520;12.152;2023-07-20T13:49:48;23.30;96.60
24802;DHT22;12898;50.520;12.152;2023-07-20T13:52:14;24.00;92.10
24802;DHT22;12898;50.520;12.152;2023-07-20T13:54:40;24.40;92.70
24802;DHT22;12898;50.520;12.152;2023-07-20T13:57:06;24.40;89.00
24802;DHT22;12898;50.520;12.152;2023-07-20T13:59:32;24.20;72.40
24802;DHT22;12898;50.520;12.152;2023-07-20T14:01:57;23.80;80.40
24802;DHT22;12898;50.520;12.152;2023-07-20T14:04:23;23.40;80.70
24802;DHT22;12898;50.520;12.152;2023-07-20T14:06:50;23.60;81.80
24802;DHT22;12898;50.520;12.152;2023-07-20T14:09:15;24.30;81.60
24802;DHT22;12898;50.520;12.152;2023-07-20T14:11:41;25.00;72.40
24802;DHT22;12898;50.520;12.152;2023-07-20T14:14:07;25.40;67.60
24802;DHT22;12898;50.520;12.152;2023-07-20T14:16:32;25.40;67.20
24802;DHT22;12898;50.520;12.152;2023-07-20T14:18:58;25.30;68.20
24802;DHT22;12898;50.520;12.152;2023-07-20T14:21:24;25.40;64.10
24802;DHT22;12898;50.520;12.152;2023-07-20T14:23:51;25.90;66.10
24802;DHT22;12898;50.520;12.152;2023-07-20T14:26:21;26.10;63.90
24802;DHT22;12898;50.520;12.152;2023-07-20T14:28:47;25.90;58.90
24802;DHT22;12898;50.520;12.152;2023-07-20T14:31:12;25.30;57.90
24802;DHT22;12898;50.520;12.152;2023-07-20T14:33:39;24.70;63.40
24802;DHT22;12898;50.520;12.152;2023-07-20T14:36:05;24.20;64.90
24802;DHT22;12898;50.520;12.152;2023-07-20T14:38:31;23.80;66.00
24802;DHT22;12898;50.520;12.152;2023-07-20T14:40:58;23.60;65.80
24802;DHT22;12898;50.520;12.152;2023-07-20T14:43:24;23.20;63.60
24802;DHT22;12898;50.520;12.152;2023-07-20T14:45:49;22.70;63.20
24802;DHT22;12898;50.520;12.152;2023-07-20T14:48:15;22.30;65.30
24802;DHT22;12898;50.520;12.152;2023-07-20T14:50:41;22.10;66.60
24802;DHT22;12898;50.520;12.152;2023-07-20T14:53:07;22.00;69.60
24802;DHT22;12898;50.520;12.152;2023-07-20T14:55:33;22.00;66.20
24802;DHT22;12898;50.520;12.152;2023-07-20T14:57:59;21.70;67.20
24802;DHT22;12898;50.520;12.152;2023-07-20T15:00:25;21.90;67.80
24802;DHT22;12898;50.520;12.152;2023-07-20T15:02:51;22.00;69.80
24802;DHT22;12898;50.520;12.152;2023-07-20T15:05:22;22.30;70.70
24802;DHT22;12898;50.520;12.152;2023-07-20T15:07:49;22.60;66.10
24802;DHT22;12898;50.520;12.152;2023-07-20T15:10:15;22.90;70.90
24802;DHT22;12898;50.520;12.152;2023-07-20T15:12:41;23.60;67.00
24802;DHT22;12898;50.520;12.152;2023-07-20T15:15:14;24.40;64.70
24802;DHT22;12898;50.520;12.152;2023-07-20T15:17:43;24.70;62.90
24802;DHT22;12898;50.520;12.152;2023-07-20T15:20:11;24.80;63.10
24802;DHT22;12898;50.520;12.152;2023-07-20T15:22:37;24.70;59.10
24802;DHT22;12898;50.520;12.152;2023-07-20T15:25:07;24.50;61.80
24802;DHT22;12898;50.520;12.152;2023-07-20T15:27:34;24.70;61.40
24802;DHT22;12898;50.520;12.152;2023-07-20T15:30:00;24.90;62.70
24802;DHT22;12898;50.520;12.152;2023-07-20T15:32:25;25.00;57.60